createdAt,value
2022-10-10T00:01:49.561Z,68.30
2022-10-10T00:04:18.771Z,69.03
2022-10-10T00:06:47.834Z,70.16
2022-10-10T00:09:17.121Z,68.76
2022-10-10T00:11:46.159Z,69.42
2022-10-10T00:14:15.609Z,68.24
2022-10-10T00:16:46.075Z,68.46
2022-10-10T00:19:15.633Z,67.87
2022-10-10T00:21:44.718Z,68.92
2022-10-10T00:24:13.932Z,70.01
2022-10-10T00:26:42.949Z,69.72
2022-10-10T00:29:12.170Z,69.00
2022-10-10T00:31:41.258Z,69.80
2022-10-10T00:34:12.975Z,70.60
2022-10-10T00:36:42.115Z,69.50
2022-10-10T00:39:11.423Z,68.99
2022-10-10T00:41:40.470Z,69.03
2022-10-10T00:44:11.844Z,70.43
2022-10-10T00:46:41.381Z,70.95
2022-10-10T00:49:16.377Z,70.13
2022-10-10T00:51:48.069Z,69.53
2022-10-10T00:54:19.472Z,69.61
2022-10-10T00:56:52.772Z,69.68
2022-10-10T00:59:23.065Z,69.75
2022-10-10T01:01:52.119Z,68.90
2022-10-10T01:04:35.095Z,68.53
2022-10-10T01:07:07.153Z,69.41
2022-10-10T01:09:38.789Z,68.67
2022-10-10T01:12:19.735Z,69.62
2022-10-10T01:14:55.101Z,68.97
2022-10-10T01:17:31.452Z,69.31
2022-10-10T01:20:38.037Z,69.26
2022-10-10T01:23:39.528Z,68.22
2022-10-10T01:26:35.834Z,68.49
2022-10-10T01:29:12.102Z,68.44
2022-10-10T01:31:45.117Z,68.91
2022-10-10T01:34:22.329Z,69.15
2022-10-10T01:36:59.704Z,69.33
2022-10-10T01:39:35.166Z,69.17
2022-10-10T01:42:10.762Z,68.97
2022-10-10T01:44:45.804Z,68.04
2022-10-10T01:47:15.435Z,68.20
2022-10-10T01:49:48.083Z,67.83
2022-10-10T01:52:26.252Z,68.16
2022-10-10T01:55:07.656Z,68.36
2022-10-10T01:57:47.795Z,68.57
2022-10-10T02:00:19.797Z,68.60
2022-10-10T02:02:55.142Z,67.57
2022-10-10T02:05:29.046Z,68.29
2022-10-10T02:08:04.650Z,68.50
2022-10-10T02:10:41.589Z,67.46
2022-10-10T02:13:14.211Z,67.61
2022-10-10T02:15:47.052Z,68.45
2022-10-10T02:18:21.077Z,67.86
2022-10-10T02:20:51.618Z,68.21
2022-10-10T02:23:22.965Z,68.85
2022-10-10T02:25:55.268Z,68.88
2022-10-10T02:28:31.338Z,67.53
2022-10-10T02:36:09.896Z,69.14
2022-10-10T02:38:40.572Z,68.87
2022-10-10T02:41:12.853Z,69.67
2022-10-10T02:43:42.443Z,68.16
2022-10-10T02:46:14.953Z,68.31
2022-10-10T02:48:44.859Z,68.44
2022-10-10T02:51:18.507Z,67.89
2022-10-10T02:53:47.570Z,67.68
2022-10-10T02:56:16.931Z,67.15
2022-10-10T02:58:46.044Z,67.91
2022-10-10T03:01:15.293Z,68.24
2022-10-10T03:03:44.420Z,67.66
2022-10-10T03:06:15.167Z,68.17
2022-10-10T03:08:44.107Z,67.48
2022-10-10T03:11:13.392Z,68.39
2022-10-10T03:13:42.566Z,67.34
2022-10-10T03:16:12.278Z,67.02
2022-10-10T03:18:41.419Z,66.87
2022-10-10T03:21:10.564Z,67.75
2022-10-10T03:23:41.255Z,68.67
2022-10-10T03:26:10.304Z,68.21
2022-10-10T03:28:39.832Z,67.74
2022-10-10T03:31:09.011Z,68.10
2022-10-10T03:33:38.215Z,68.44
2022-10-10T03:36:07.771Z,67.78
2022-10-10T03:38:36.981Z,67.39
2022-10-10T03:41:07.539Z,67.40
2022-10-10T03:43:36.715Z,67.58
2022-10-10T03:46:05.937Z,67.00
2022-10-10T03:48:35.310Z,67.29
2022-10-10T03:51:04.579Z,67.60
2022-10-10T03:53:33.917Z,67.34
2022-10-10T03:56:02.959Z,67.70
2022-10-10T03:58:33.642Z,67.87
2022-10-10T04:01:04.368Z,67.78
2022-10-10T04:03:34.085Z,67.57
2022-10-10T04:06:03.195Z,67.25
2022-10-10T04:08:32.670Z,68.08
2022-10-10T04:11:01.666Z,67.57
2022-10-10T04:13:32.334Z,68.71
2022-10-10T04:16:01.429Z,68.83
2022-10-10T04:18:31.080Z,69.08
2022-10-10T04:21:04.118Z,68.40
2022-10-10T04:23:33.642Z,67.68
2022-10-10T04:26:02.848Z,67.86
2022-10-10T04:28:33.719Z,68.02
2022-10-10T04:31:02.828Z,67.87
2022-10-10T04:33:32.199Z,68.17
2022-10-10T04:36:01.274Z,67.90
2022-10-10T04:38:30.573Z,68.04
2022-10-10T04:40:59.757Z,69.63
2022-10-10T04:43:29.481Z,68.02
2022-10-10T04:46:00.356Z,68.92
2022-10-10T04:48:29.629Z,68.67
2022-10-10T04:51:00.908Z,69.15
2022-10-10T04:53:30.182Z,69.26
2022-10-10T04:55:59.383Z,69.50
2022-10-10T04:58:28.859Z,70.34
2022-10-10T05:00:59.444Z,69.75
2022-10-10T05:03:28.868Z,69.21
2022-10-10T05:05:58.100Z,69.38
2022-10-10T05:08:27.588Z,68.72
2022-10-10T05:10:56.855Z,69.03
2022-10-10T05:13:26.269Z,68.37
2022-10-10T05:15:55.779Z,68.15
2022-10-10T05:18:26.406Z,68.65
2022-10-10T05:20:58.606Z,68.74
2022-10-10T05:23:30.518Z,68.33
2022-10-10T05:25:59.646Z,68.05
2022-10-10T05:28:28.873Z,67.90
2022-10-10T05:30:58.008Z,68.23
2022-10-10T05:33:28.898Z,68.57
2022-10-10T05:36:05.112Z,68.59
2022-10-10T05:38:35.051Z,68.23
2022-10-10T05:41:04.432Z,69.71
2022-10-10T05:43:33.717Z,69.62
2022-10-10T05:46:02.984Z,69.19
2022-10-10T05:48:33.737Z,69.71
2022-10-10T05:51:03.229Z,70.80
2022-10-10T05:53:32.467Z,69.44
2022-10-10T05:56:03.143Z,69.17
2022-10-10T05:58:32.381Z,69.38
2022-10-10T06:01:05.724Z,69.61
2022-10-10T06:03:37.152Z,69.55
2022-10-10T06:06:07.261Z,69.97
2022-10-10T06:08:36.976Z,69.97
2022-10-10T06:11:08.862Z,69.44
2022-10-10T06:13:39.135Z,70.39
2022-10-10T06:16:08.555Z,70.79
2022-10-10T06:18:39.286Z,70.85
2022-10-10T06:21:09.314Z,71.24
2022-10-10T06:23:38.762Z,72.35
2022-10-10T06:26:07.938Z,71.77
2022-10-10T06:28:37.360Z,71.99
2022-10-10T06:31:08.796Z,72.43
2022-10-10T06:33:41.065Z,71.98
2022-10-10T06:36:10.472Z,72.96
2022-10-10T06:38:40.727Z,74.16
2022-10-10T06:41:10.365Z,74.38
2022-10-10T06:43:41.275Z,74.87
2022-10-10T06:46:11.801Z,76.17
2022-10-10T06:48:43.191Z,76.04
2022-10-10T06:51:15.998Z,75.20
2022-10-10T06:53:46.286Z,76.80
2022-10-10T06:56:26.266Z,76.90
2022-10-10T06:58:56.862Z,78.08
2022-10-10T07:01:27.267Z,77.85
2022-10-10T07:03:58.154Z,77.59
2022-10-10T07:06:29.615Z,76.08
2022-10-10T07:09:01.848Z,76.42
2022-10-10T07:11:31.243Z,75.65
2022-10-10T07:14:00.775Z,74.83
2022-10-10T07:16:30.054Z,74.84
2022-10-10T07:19:00.669Z,74.89
2022-10-10T07:21:29.793Z,75.09
2022-10-10T07:23:59.086Z,73.97
2022-10-10T07:26:31.095Z,73.99
2022-10-10T07:29:00.353Z,73.71
2022-10-10T07:31:29.547Z,72.23
2022-10-10T07:34:00.167Z,72.11
2022-10-10T07:36:29.275Z,71.89
2022-10-10T07:38:58.608Z,71.46
2022-10-10T07:41:27.586Z,72.11
2022-10-10T07:43:57.673Z,71.35
2022-10-10T07:46:27.081Z,71.30
2022-10-10T07:48:57.483Z,70.78
2022-10-10T07:51:27.868Z,71.53
2022-10-10T07:53:57.275Z,71.73
2022-10-10T07:56:26.843Z,71.40
2022-10-10T07:58:56.134Z,72.11
2022-10-10T08:01:25.282Z,70.53
2022-10-10T08:03:56.311Z,70.95
2022-10-10T08:06:27.108Z,70.11
2022-10-10T08:08:56.362Z,70.55
2022-10-10T08:11:25.536Z,70.09
2022-10-10T08:13:54.731Z,68.63
2022-10-10T08:16:23.807Z,67.60
2022-10-10T08:18:53.408Z,68.71
2022-10-10T08:21:22.486Z,68.35
2022-10-10T08:23:53.215Z,67.81
2022-10-10T08:26:22.192Z,67.18
2022-10-10T08:28:51.531Z,67.31
2022-10-10T08:31:22.759Z,66.48
2022-10-10T08:33:52.948Z,66.54
2022-10-10T08:36:23.722Z,66.91
2022-10-10T08:39:01.016Z,67.03
2022-10-10T08:41:39.555Z,66.79
2022-10-10T08:44:17.793Z,65.67
2022-10-10T08:46:51.546Z,64.88
2022-10-10T08:49:26.431Z,66.03
2022-10-10T08:52:02.784Z,64.24
2022-10-10T08:54:35.892Z,63.71
2022-10-10T08:57:08.986Z,63.04
2022-10-10T08:59:42.176Z,63.61
2022-10-10T09:02:53.142Z,63.02
2022-10-10T09:05:35.901Z,62.83
2022-10-10T09:08:26.882Z,62.12
2022-10-10T09:11:03.496Z,61.72
2022-10-10T09:13:37.160Z,60.63
2022-10-10T09:16:14.577Z,61.81
2022-10-10T09:18:55.353Z,60.09
2022-10-10T09:21:28.931Z,60.45
2022-10-10T09:24:04.297Z,59.33
2022-10-10T09:26:39.861Z,59.17
2022-10-10T09:29:24.796Z,57.24
2022-10-10T09:31:58.507Z,57.78
2022-10-10T09:34:37.234Z,58.42
2022-10-10T09:37:16.474Z,57.84
2022-10-10T09:39:57.669Z,57.16
2022-10-10T09:42:36.562Z,55.62
2022-10-10T09:45:14.326Z,53.83
2022-10-10T09:47:43.757Z,52.39
2022-10-10T09:50:15.216Z,52.57
2022-10-10T09:52:45.458Z,51.60
2022-10-10T09:55:26.384Z,51.43
2022-10-10T09:58:04.033Z,49.14
2022-10-10T10:00:37.730Z,47.91
2022-10-10T10:03:13.743Z,45.28
2022-10-10T10:05:46.490Z,44.16
2022-10-10T10:08:27.896Z,43.71
2022-10-10T10:11:00.798Z,42.62
2022-10-10T10:13:34.768Z,39.14
2022-10-10T10:16:09.593Z,36.92
2022-10-10T10:18:43.507Z,37.33
2022-10-10T10:21:19.610Z,36.25
2022-10-10T10:23:58.208Z,37.33
2022-10-10T10:26:32.049Z,37.25
2022-10-10T10:29:02.587Z,37.56
2022-10-10T10:31:54.468Z,38.06
2022-10-10T10:34:53.296Z,34.51
2022-10-10T10:37:25.269Z,32.53
2022-10-10T10:40:10.421Z,32.98
2022-10-10T10:43:03.824Z,30.25
2022-10-10T10:45:46.239Z,29.69
2022-10-10T10:48:27.148Z,30.06
2022-10-10T10:51:03.753Z,32.07
2022-10-10T10:53:41.582Z,29.43
2022-10-10T10:56:21.036Z,30.16
2022-10-10T10:59:31.845Z,30.49
2022-10-10T11:02:01.102Z,29.77
2022-10-10T11:05:18.330Z,28.57
2022-10-10T11:08:02.357Z,29.63
2022-10-10T11:10:39.861Z,29.19
2022-10-10T11:13:19.245Z,28.51
2022-10-10T11:16:05.904Z,25.27
2022-10-10T11:18:47.154Z,25.00
2022-10-10T11:21:20.036Z,25.61
2022-10-10T11:23:56.249Z,27.44
2022-10-10T11:26:29.510Z,29.37
2022-10-10T11:29:04.186Z,26.91
2022-10-10T11:31:39.130Z,26.55
2022-10-10T11:34:14.404Z,25.99
2022-10-10T11:36:45.464Z,29.21
2022-10-10T11:39:19.117Z,27.40
2022-10-10T11:41:53.141Z,28.64
2022-10-10T11:44:29.380Z,26.44
2022-10-10T11:47:04.606Z,25.86
2022-10-10T11:49:41.701Z,25.42
2022-10-10T11:52:34.060Z,24.82
2022-10-10T11:55:11.553Z,25.29
2022-10-10T11:57:45.989Z,24.31
2022-10-10T12:00:18.005Z,25.66
2022-10-10T12:02:49.972Z,25.93
2022-10-10T12:05:26.087Z,25.11
2022-10-10T12:08:12.318Z,27.65
2022-10-10T12:10:50.874Z,26.30
2022-10-10T12:13:29.767Z,25.76
2022-10-10T12:16:04.027Z,26.86
2022-10-10T12:18:41.607Z,27.04
2022-10-10T12:21:14.936Z,26.48
2022-10-10T12:23:47.435Z,25.28
2022-10-10T12:26:18.482Z,26.76
2022-10-10T12:29:03.411Z,27.55
2022-10-10T12:31:37.711Z,27.38
2022-10-10T12:34:18.475Z,26.54
2022-10-10T12:37:22.385Z,25.82
2022-10-10T12:40:31.161Z,25.13
2022-10-10T12:43:21.412Z,26.54
2022-10-10T12:46:23.901Z,25.59
2022-10-10T12:49:21.208Z,25.70
2022-10-10T12:52:12.443Z,25.45
2022-10-10T12:54:45.875Z,28.15
2022-10-10T12:57:21.388Z,27.14
2022-10-10T12:59:50.691Z,26.00
2022-10-10T13:02:24.898Z,26.20
2022-10-10T13:04:58.410Z,27.84
2022-10-10T13:07:28.240Z,25.29
2022-10-10T13:10:11.571Z,24.66
2022-10-10T13:12:40.616Z,24.12
2022-10-10T13:15:21.063Z,26.20
2022-10-10T13:17:50.136Z,26.24
2022-10-10T13:20:31.797Z,25.47
2022-10-10T13:23:04.574Z,27.17
2022-10-10T13:25:38.993Z,26.99
2022-10-10T13:28:17.588Z,26.58
2022-10-10T13:30:47.860Z,26.08
2022-10-10T13:33:19.175Z,27.29
2022-10-10T13:35:50.630Z,27.71
2022-10-10T13:38:25.865Z,28.38
2022-10-10T13:40:56.891Z,26.98
2022-10-10T13:43:26.433Z,29.37
2022-10-10T13:46:00.509Z,26.02
2022-10-10T13:48:39.064Z,26.56
2022-10-10T13:51:10.979Z,29.40
2022-10-10T13:53:49.579Z,27.45
2022-10-10T13:56:28.598Z,28.21
2022-10-10T13:59:06.562Z,29.46
2022-10-10T14:01:39.110Z,28.67
2022-10-10T14:04:17.795Z,28.49
2022-10-10T14:06:56.344Z,28.14
2022-10-10T14:09:31.950Z,29.10
2022-10-10T14:12:04.487Z,30.20
2022-10-10T14:14:42.155Z,29.31
2022-10-10T14:17:12.704Z,31.18
2022-10-10T14:19:42.504Z,32.02
2022-10-10T14:22:11.522Z,35.09
2022-10-10T14:24:40.861Z,37.51
2022-10-10T14:27:17.484Z,40.73
2022-10-10T14:29:47.254Z,43.00
2022-10-10T14:32:16.932Z,44.20
2022-10-10T14:34:47.010Z,40.76
2022-10-10T14:37:20.527Z,38.47
2022-10-10T14:39:50.319Z,39.94
2022-10-10T14:42:22.036Z,39.00
2022-10-10T14:44:51.381Z,38.72
2022-10-10T14:47:22.453Z,39.17
2022-10-10T14:49:52.893Z,39.05
2022-10-10T14:52:21.872Z,40.24
2022-10-10T14:54:51.065Z,39.58
2022-10-10T14:57:22.479Z,40.42
2022-10-10T14:59:51.810Z,43.01
2022-10-10T15:02:22.839Z,45.32
2022-10-10T15:04:52.698Z,48.05
2022-10-10T15:07:21.869Z,49.84
2022-10-10T15:10:26.134Z,50.76
2022-10-10T15:12:44.777Z,51.51
2022-10-10T15:15:14.766Z,51.79
2022-10-10T15:17:44.073Z,53.58
2022-10-10T15:20:14.777Z,54.12
2022-10-10T15:22:46.068Z,55.13
2022-10-10T15:25:15.320Z,55.31
2022-10-10T15:27:45.703Z,55.42
2022-10-10T15:30:15.457Z,56.43
2022-10-10T15:32:44.601Z,56.90
2022-10-10T15:35:16.922Z,56.53
2022-10-10T15:37:47.178Z,57.13
2022-10-10T15:40:19.845Z,57.70
2022-10-10T15:42:52.082Z,57.56
2022-10-10T15:45:44.022Z,57.77
2022-10-10T15:48:10.790Z,58.05
2022-10-10T15:50:43.609Z,58.01
2022-10-10T15:53:13.433Z,58.99
2022-10-10T15:55:46.751Z,58.83
2022-10-10T15:58:17.806Z,59.31
2022-10-10T16:00:47.223Z,59.12
2022-10-10T16:03:18.321Z,59.36
2022-10-10T16:05:47.392Z,59.71
2022-10-10T16:08:16.497Z,59.39
2022-10-10T16:10:45.916Z,59.57
2022-10-10T16:13:16.345Z,59.71
2022-10-10T16:15:45.346Z,59.66
2022-10-10T16:18:14.613Z,59.98
2022-10-10T16:20:44.488Z,60.17
2022-10-10T16:23:13.706Z,59.80
2022-10-10T16:25:43.151Z,60.11
2022-10-10T16:28:12.832Z,60.78
2022-10-10T16:30:43.303Z,60.50
2022-10-10T16:33:13.673Z,60.13
2022-10-10T16:35:42.826Z,60.76
2022-10-10T16:38:12.075Z,60.84
2022-10-10T16:40:41.117Z,60.72
2022-10-10T16:43:11.115Z,60.91
2022-10-10T16:45:45.031Z,60.80
2022-10-10T16:48:14.628Z,61.10
2022-10-10T16:50:44.478Z,60.17
2022-10-10T16:53:13.738Z,60.90
2022-10-10T16:55:43.556Z,60.99
2022-10-10T16:58:12.956Z,60.81
2022-10-10T17:00:45.631Z,60.82
2022-10-10T17:03:15.217Z,60.15
2022-10-10T17:05:44.613Z,60.56
2022-10-10T17:08:14.095Z,60.64
2022-10-10T17:10:45.299Z,60.24
2022-10-10T17:13:14.597Z,60.33
2022-10-10T17:15:45.344Z,60.56
2022-10-10T17:18:17.357Z,60.34
2022-10-10T17:20:47.119Z,60.30
2022-10-10T17:23:17.404Z,59.90
2022-10-10T17:25:47.482Z,59.93
2022-10-10T17:28:17.603Z,60.13
2022-10-10T17:30:50.310Z,59.76
2022-10-10T17:33:21.680Z,59.76
2022-10-10T17:35:51.840Z,59.52
2022-10-10T17:38:39.173Z,59.71
2022-10-10T17:41:10.696Z,60.00
2022-10-10T17:43:40.187Z,59.67
2022-10-10T17:46:33.357Z,60.18
2022-10-10T17:49:02.351Z,60.46
2022-10-10T17:51:31.483Z,60.97
2022-10-10T17:54:01.421Z,60.65
2022-10-10T17:56:31.726Z,60.36
2022-10-10T17:59:02.048Z,60.16
2022-10-10T18:01:33.060Z,61.01
2022-10-10T18:04:02.609Z,60.88
2022-10-10T18:06:33.028Z,61.11
2022-10-10T18:09:02.731Z,61.83
2022-10-10T18:11:33.129Z,61.53
2022-10-10T18:14:02.266Z,61.03
2022-10-10T18:16:34.897Z,61.49
2022-10-10T18:19:05.624Z,61.97
2022-10-10T18:21:35.575Z,61.76
2022-10-10T18:24:04.908Z,61.96
2022-10-10T18:26:35.103Z,61.73
2022-10-10T18:29:05.034Z,61.62
2022-10-10T18:31:38.306Z,61.56
2022-10-10T18:34:08.871Z,62.01
2022-10-10T18:36:40.396Z,61.94
2022-10-10T18:39:13.326Z,61.82
2022-10-10T18:41:42.787Z,61.73
2022-10-10T18:44:14.710Z,62.13
2022-10-10T18:46:46.367Z,61.96
2022-10-10T18:49:15.924Z,61.79
2022-10-10T18:51:45.684Z,61.69
2022-10-10T18:54:17.569Z,61.61
2022-10-10T18:56:48.591Z,62.09
2022-10-10T18:59:20.033Z,61.88
2022-10-10T19:01:52.528Z,61.71
2022-10-10T19:04:23.489Z,61.83
2022-10-10T19:06:57.313Z,61.46
2022-10-10T19:09:27.123Z,61.00
2022-10-10T19:11:56.627Z,60.84
2022-10-10T19:14:25.871Z,60.47
2022-10-10T19:16:57.348Z,60.00
2022-10-10T19:19:27.264Z,59.85
2022-10-10T19:21:56.620Z,60.42
2022-10-10T19:24:25.835Z,59.99
2022-10-10T19:26:57.473Z,59.92
2022-10-10T19:29:28.234Z,59.85
2022-10-10T19:31:58.931Z,59.81
2022-10-10T19:34:28.213Z,59.47
2022-10-10T19:36:58.791Z,59.80
2022-10-10T19:39:27.838Z,59.87
2022-10-10T19:41:57.113Z,59.83
2022-10-10T19:44:26.290Z,59.54
2022-10-10T19:46:59.558Z,59.66
2022-10-10T19:49:28.759Z,59.51
2022-10-10T19:51:57.838Z,59.41
2022-10-10T19:54:27.058Z,59.30
2022-10-10T19:56:56.370Z,59.33
2022-10-10T19:59:25.403Z,59.07
2022-10-10T20:01:54.598Z,59.04
2022-10-10T20:04:25.291Z,58.69
2022-10-10T20:06:54.472Z,59.35
2022-10-10T20:09:25.480Z,59.24
2022-10-10T20:11:55.139Z,59.33
2022-10-10T20:14:24.213Z,59.10
2022-10-10T20:16:53.923Z,59.25
2022-10-10T20:19:24.972Z,58.94
2022-10-10T20:21:54.114Z,58.46
2022-10-10T20:24:23.464Z,58.83
2022-10-10T20:26:54.491Z,59.05
2022-10-10T20:29:23.739Z,58.90
2022-10-10T20:31:53.928Z,58.90
2022-10-10T20:34:24.399Z,59.23
2022-10-10T20:36:53.859Z,59.11
2022-10-10T20:39:22.858Z,59.58
2022-10-10T20:41:52.118Z,59.06
2022-10-10T20:44:21.313Z,59.32
2022-10-10T20:46:50.324Z,59.33
2022-10-10T20:49:21.219Z,59.59
2022-10-10T20:51:52.115Z,60.18
2022-10-10T20:54:23.333Z,60.71
2022-10-10T20:56:52.973Z,59.88
2022-10-10T20:59:24.526Z,59.76
2022-10-10T21:01:53.941Z,59.76
2022-10-10T21:04:23.019Z,60.12
2022-10-10T21:06:53.456Z,60.48
2022-10-10T21:09:22.696Z,60.74
2022-10-10T21:11:52.041Z,60.74
2022-10-10T21:14:21.256Z,60.70
2022-10-10T21:16:51.375Z,60.52
2022-10-10T21:19:20.468Z,60.77
2022-10-10T21:21:49.663Z,60.26
2022-10-10T21:24:20.198Z,60.90
2022-10-10T21:26:50.768Z,60.95
2022-10-10T21:29:19.851Z,60.52
2022-10-10T21:31:49.085Z,60.66
2022-10-10T21:34:19.064Z,61.08
2022-10-10T21:36:48.844Z,60.78
2022-10-10T21:39:19.250Z,60.83
2022-10-10T21:41:48.539Z,60.85
2022-10-10T21:44:17.600Z,60.73
2022-10-10T21:46:46.667Z,60.65
2022-10-10T21:49:16.049Z,61.34
2022-10-10T21:51:46.535Z,61.58
2022-10-10T21:54:16.140Z,61.02
2022-10-10T21:56:46.799Z,61.75
2022-10-10T21:59:15.846Z,61.43
2022-10-10T22:01:45.003Z,60.98
2022-10-10T22:04:14.200Z,60.92
2022-10-10T22:06:44.701Z,61.33
2022-10-10T22:09:13.780Z,61.32
2022-10-10T22:11:43.082Z,61.61
2022-10-10T22:14:13.471Z,61.59
2022-10-10T22:16:42.536Z,61.30
2022-10-10T22:19:11.901Z,61.99
2022-10-10T22:21:41.035Z,62.32
2022-10-10T22:24:10.313Z,61.94
2022-10-10T22:26:39.708Z,61.96
2022-10-10T22:29:08.796Z,62.11
2022-10-10T22:31:39.236Z,62.00
2022-10-10T22:34:08.536Z,61.62
2022-10-10T22:36:37.567Z,61.87
2022-10-10T22:39:09.006Z,61.78
2022-10-10T22:41:38.159Z,61.60
2022-10-10T22:44:07.603Z,61.68
2022-10-10T22:46:37.962Z,61.69
2022-10-10T22:49:07.313Z,61.39
2022-10-10T22:51:36.271Z,61.69
2022-10-10T22:54:05.413Z,62.22
2022-10-10T22:56:34.764Z,62.06
2022-10-10T22:59:03.778Z,62.22
2022-10-10T23:01:32.950Z,61.91
2022-10-10T23:04:10.299Z,61.82
2022-10-10T23:06:39.490Z,62.59
2022-10-10T23:09:09.519Z,62.09
2022-10-10T23:11:38.496Z,62.53
2022-10-10T23:14:07.815Z,62.65
2022-10-10T23:16:40.600Z,62.63
2022-10-10T23:19:11.382Z,63.13
2022-10-10T23:21:40.782Z,63.14
2022-10-10T23:24:10.231Z,63.16
2022-10-10T23:26:39.272Z,63.18
2022-10-10T23:29:09.377Z,63.73
2022-10-10T23:31:38.341Z,63.09
2022-10-10T23:34:07.557Z,63.72
2022-10-10T23:36:38.279Z,63.87
2022-10-10T23:39:09.898Z,63.56
2022-10-10T23:41:39.547Z,64.16
2022-10-10T23:44:08.669Z,63.56
2022-10-10T23:46:37.807Z,64.90
2022-10-10T23:49:07.231Z,64.14
2022-10-10T23:51:37.688Z,65.44
2022-10-10T23:54:06.799Z,65.09
2022-10-10T23:56:36.069Z,65.79
2022-10-10T23:59:05.100Z,66.27
